createdAt,value
2022-10-22T00:01:49.760Z,0
2022-10-22T00:07:01.931Z,0
2022-10-22T00:12:14.615Z,0
2022-10-22T00:17:26.805Z,0
2022-10-22T00:22:39.315Z,0
2022-10-22T00:27:51.784Z,0
2022-10-22T00:33:04.084Z,0
2022-10-22T00:38:16.565Z,0
2022-10-22T00:43:29.083Z,0
2022-10-22T00:48:41.298Z,0
2022-10-22T00:53:53.706Z,0
2022-10-22T00:59:06.100Z,0
2022-10-22T01:04:18.446Z,0
2022-10-22T01:09:30.783Z,0
2022-10-22T01:14:43.255Z,0
2022-10-22T01:19:55.284Z,0
2022-10-22T01:25:07.870Z,0
2022-10-22T01:30:20.313Z,0
2022-10-22T01:40:45.227Z,0
2022-10-22T01:45:57.700Z,0
2022-10-22T01:51:09.969Z,0
2022-10-22T01:56:22.310Z,0
2022-10-22T02:01:34.646Z,0
2022-10-22T02:06:47.057Z,0
2022-10-22T02:11:59.981Z,0
2022-10-22T02:17:12.313Z,0
2022-10-22T02:27:36.842Z,0
2022-10-22T02:32:49.344Z,0
2022-10-22T02:38:01.576Z,0
2022-10-22T02:43:13.928Z,0
2022-10-22T02:48:26.264Z,0
2022-10-22T02:53:38.524Z,0
2022-10-22T02:58:51.009Z,0
2022-10-22T03:04:03.375Z,0
2022-10-22T03:09:15.718Z,0
2022-10-22T03:14:28.073Z,0
2022-10-22T03:19:40.429Z,0
2022-10-22T03:24:52.799Z,0
2022-10-22T03:30:04.998Z,0
2022-10-22T03:35:17.510Z,0
2022-10-22T03:40:29.881Z,0
2022-10-22T03:45:42.323Z,0
2022-10-22T03:50:54.648Z,0
2022-10-22T03:56:07.041Z,0
2022-10-22T04:01:19.548Z,0
2022-10-22T04:06:32.073Z,0
2022-10-22T04:11:44.467Z,0
2022-10-22T04:16:57.086Z,0
2022-10-22T04:22:09.369Z,0
2022-10-22T04:27:21.631Z,0
2022-10-22T04:32:33.962Z,0
2022-10-22T04:37:46.321Z,0
2022-10-22T04:42:58.793Z,0
2022-10-22T04:48:11.089Z,0
2022-10-22T04:53:23.391Z,0
2022-10-22T04:58:35.653Z,0
2022-10-22T05:03:47.982Z,0
2022-10-22T05:14:12.735Z,0
2022-10-22T05:19:25.017Z,0
2022-10-22T05:24:37.446Z,0
2022-10-22T05:29:49.603Z,9
2022-10-22T05:35:01.852Z,317
2022-10-22T05:40:19.652Z,816
2022-10-22T05:45:26.546Z,1407
2022-10-22T05:50:39.160Z,1954
2022-10-22T05:55:51.448Z,2766
2022-10-22T06:01:03.831Z,3328
2022-10-22T06:06:16.171Z,3836
2022-10-22T06:11:29.889Z,4480
2022-10-22T06:16:40.716Z,5050
2022-10-22T06:21:52.934Z,5184
2022-10-22T06:27:05.378Z,5181
2022-10-22T06:32:17.600Z,5060
2022-10-22T06:37:29.896Z,5106
2022-10-22T06:42:42.575Z,5099
2022-10-22T06:47:54.419Z,5149
2022-10-22T06:53:06.809Z,5115
2022-10-22T06:58:19.141Z,5184
2022-10-22T07:03:31.561Z,5186
2022-10-22T07:08:44.096Z,5142
2022-10-22T07:13:56.326Z,5062
2022-10-22T07:19:08.613Z,5186
2022-10-22T07:24:20.914Z,5124
2022-10-22T07:29:33.470Z,5119
2022-10-22T07:34:45.885Z,5186
2022-10-22T07:40:01.356Z,4995
2022-10-22T07:45:10.266Z,5083
2022-10-22T07:50:22.598Z,5156
2022-10-22T08:00:47.292Z,5083
2022-10-22T08:05:59.689Z,5106
2022-10-22T08:11:12.012Z,5057
2022-10-22T08:16:24.395Z,5092
2022-10-22T08:21:37.087Z,5186
2022-10-22T08:26:49.296Z,5101
2022-10-22T08:32:01.571Z,5186
2022-10-22T08:37:13.946Z,5106
2022-10-22T08:42:26.431Z,5083
2022-10-22T08:47:38.777Z,5064
2022-10-22T08:52:51.055Z,5037
2022-10-22T08:58:03.353Z,5145
2022-10-22T09:03:15.616Z,5145
2022-10-22T09:08:28.016Z,5122
2022-10-22T09:13:40.272Z,5129
2022-10-22T09:18:52.786Z,5158
2022-10-22T09:24:05.257Z,5152
2022-10-22T09:29:17.593Z,5188
2022-10-22T09:34:36.690Z,5184
2022-10-22T09:39:49.014Z,5188
2022-10-22T09:45:01.437Z,5191
2022-10-22T09:50:13.896Z,5191
2022-10-22T09:55:25.963Z,5191
2022-10-22T10:00:38.323Z,5193
2022-10-22T10:05:50.663Z,5161
2022-10-22T10:11:03.059Z,5193
2022-10-22T10:16:15.459Z,5163
2022-10-22T10:21:27.848Z,5078
2022-10-22T10:26:40.230Z,5087
2022-10-22T10:31:52.963Z,5092
2022-10-22T10:37:05.268Z,5186
2022-10-22T10:42:17.814Z,5156
2022-10-22T10:47:30.030Z,5168
2022-10-22T10:52:42.306Z,5195
2022-10-22T10:57:54.797Z,5198
2022-10-22T11:03:07.195Z,5085
2022-10-22T11:08:19.457Z,5099
2022-10-22T11:13:31.865Z,5202
2022-10-22T11:18:44.140Z,5122
2022-10-22T11:23:56.623Z,5209
2022-10-22T11:29:09.152Z,5214
2022-10-22T11:34:33.032Z,5198
2022-10-22T11:39:34.092Z,5198
2022-10-22T11:44:47.151Z,5184
2022-10-22T11:49:59.533Z,5209
2022-10-22T11:55:11.760Z,5152
2022-10-22T12:00:24.278Z,5237
2022-10-22T12:05:36.635Z,5237
2022-10-22T12:10:48.949Z,5223
2022-10-22T12:16:01.162Z,5214
2022-10-22T12:21:13.395Z,5221
2022-10-22T12:26:25.802Z,5200
2022-10-22T12:31:38.374Z,5239
2022-10-22T12:36:50.976Z,5223
2022-10-22T12:42:03.470Z,5200
2022-10-22T12:47:16.022Z,5237
2022-10-22T12:52:28.341Z,5253
2022-10-22T12:57:40.705Z,5227
2022-10-22T13:02:53.202Z,5257
2022-10-22T13:08:05.246Z,5237
2022-10-22T13:13:17.664Z,5237
2022-10-22T13:18:30.161Z,5257
2022-10-22T13:23:42.805Z,5237
2022-10-22T13:28:55.248Z,5250
2022-10-22T13:34:09.697Z,5253
2022-10-22T13:39:20.071Z,5260
2022-10-22T13:44:32.678Z,5255
2022-10-22T13:49:45.075Z,5255
2022-10-22T13:54:57.258Z,5260
2022-10-22T14:00:09.813Z,5257
2022-10-22T14:05:22.080Z,5239
2022-10-22T14:10:34.262Z,5262
2022-10-22T14:15:46.670Z,5262
2022-10-22T14:20:58.911Z,5246
2022-10-22T14:26:11.160Z,5255
2022-10-22T14:31:23.640Z,5262
2022-10-22T14:36:35.841Z,5237
2022-10-22T14:41:48.044Z,5246
2022-10-22T14:47:00.426Z,5239
2022-10-22T14:52:14.265Z,5246
2022-10-22T14:57:25.324Z,5246
2022-10-22T15:02:37.585Z,5260
2022-10-22T15:07:49.754Z,5262
2022-10-22T15:13:02.070Z,5262
2022-10-22T15:18:14.540Z,5257
2022-10-22T15:23:26.818Z,5260
2022-10-22T15:28:39.143Z,5257
2022-10-22T15:33:51.317Z,5250
2022-10-22T15:39:03.489Z,5191
2022-10-22T15:44:15.846Z,5234
2022-10-22T15:49:28.082Z,5227
2022-10-22T15:54:40.274Z,4747
2022-10-22T15:59:52.520Z,4222
2022-10-22T16:05:04.708Z,2819
2022-10-22T16:10:16.843Z,1649
2022-10-22T16:15:29.182Z,754
2022-10-22T16:20:41.318Z,82
2022-10-22T16:25:53.605Z,0
2022-10-22T16:31:06.042Z,0
2022-10-22T16:36:18.166Z,0
2022-10-22T16:41:30.430Z,0
2022-10-22T16:51:54.776Z,0
2022-10-22T16:57:07.072Z,0
2022-10-22T17:02:19.404Z,0
2022-10-22T17:07:31.617Z,0
2022-10-22T17:12:44.123Z,0
2022-10-22T17:17:56.200Z,0
2022-10-22T17:23:08.623Z,0
2022-10-22T17:28:20.858Z,0
2022-10-22T17:33:33.593Z,0
2022-10-22T17:38:45.751Z,0
2022-10-22T17:43:58.035Z,0
2022-10-22T17:49:10.241Z,0
2022-10-22T17:54:22.584Z,0
2022-10-22T17:59:34.897Z,0
2022-10-22T18:04:47.324Z,0
2022-10-22T18:09:59.538Z,0
2022-10-22T18:15:11.819Z,0
2022-10-22T18:20:24.089Z,0
2022-10-22T18:30:48.733Z,0
2022-10-22T18:36:01.396Z,0
2022-10-22T18:41:13.659Z,0
2022-10-22T18:46:25.974Z,0
2022-10-22T18:51:38.218Z,0
2022-10-22T18:56:50.494Z,0
2022-10-22T19:02:02.793Z,0
2022-10-22T19:07:15.144Z,0
2022-10-22T19:12:27.668Z,0
2022-10-22T19:17:40.153Z,0
2022-10-22T19:22:52.409Z,0
2022-10-22T19:28:04.796Z,0
2022-10-22T19:33:17.015Z,0
2022-10-22T19:38:29.455Z,0
2022-10-22T19:43:41.704Z,0
2022-10-22T19:48:53.958Z,0
2022-10-22T19:54:06.338Z,0
2022-10-22T20:04:32.592Z,0
2022-10-22T20:09:45.169Z,0
2022-10-22T20:14:57.480Z,0
2022-10-22T20:25:22.008Z,0
2022-10-22T20:30:34.236Z,0
2022-10-22T20:35:46.574Z,0
2022-10-22T20:40:58.750Z,0
2022-10-22T20:46:11.315Z,0
2022-10-22T20:51:23.624Z,0
2022-10-22T20:56:35.918Z,0
2022-10-22T21:01:48.079Z,0
2022-10-22T21:07:00.148Z,0
2022-10-22T21:12:12.484Z,0
2022-10-22T21:17:24.733Z,0
2022-10-22T21:22:37.138Z,0
2022-10-22T21:27:49.349Z,0
2022-10-22T21:33:01.698Z,0
2022-10-22T21:38:14.007Z,0
2022-10-22T21:43:26.411Z,0
2022-10-22T21:48:38.679Z,0
2022-10-22T21:59:03.443Z,0
2022-10-22T22:04:15.848Z,0
2022-10-22T22:09:28.172Z,0
2022-10-22T22:14:40.368Z,0
2022-10-22T22:19:53.441Z,0
2022-10-22T22:25:05.600Z,0
2022-10-22T22:30:17.972Z,0
2022-10-22T22:35:30.495Z,0
2022-10-22T22:40:42.834Z,0
2022-10-22T22:45:55.026Z,0
2022-10-22T22:51:07.362Z,0
2022-10-22T22:56:19.691Z,0
2022-10-22T23:06:44.450Z,0
2022-10-22T23:11:56.706Z,0
2022-10-22T23:17:09.018Z,0
2022-10-22T23:22:21.457Z,0
2022-10-22T23:27:33.809Z,0
2022-10-22T23:32:46.355Z,0
2022-10-22T23:37:58.681Z,0
2022-10-22T23:43:10.760Z,0
2022-10-22T23:48:23.212Z,0
2022-10-22T23:53:35.460Z,0
2022-10-22T23:58:47.652Z,0
